Date,TemperatureHighF,TemperatureAvgF,TemperatureLowF,DewpointHighF,DewpointAvgF,DewpointLowF,HumidityHigh,HumidityAvg,HumidityLow,PressureMaxIn,PressureMinIn,WindSpeedMaxMPH,WindSpeedAvgMPH,GustSpeedMaxMPH,PrecipitationSumIn
2013-4-1,76.3,67.9,58.7,40.8,33.3,25.5,48,29,16,29.24,29.13,19,4,19,0.00
2013-4-2,80.3,69.4,58.6,33.4,30.5,27.6,34,24,16,29.29,29.17,21,6,25,0.00
2013-4-3,83.8,70.7,55.9,36.9,31.7,26.4,43,25,13,29.39,29.25,7,1,10,0.00
2013-4-4,87.8,70.6,57.2,41.0,30.4,24.6,38,24,11,29.32,29.08,16,2,21,0.00
2013-4-5,84.1,73.4,61.3,41.2,33.9,23.6,41,25,12,29.19,29.08,14,4,21,0.00
2013-4-6,84.1,71.0,59.2,33.0,27.3,22.3,32,20,12,29.21,29.07,10,1,13,0.00
2013-4-7,86.5,74.3,59.3,32.5,27.2,21.7,29,18,10,29.14,28.78,16,5,20,0.00
2013-4-8,75.4,62.0,0.0,44.0,31.7,-31.5,77,35,15,28.95,28.64,28,9,36,0.03
2013-4-9,69.9,59.2,51.9,23.5,20.7,17.5,28,23,14,29.38,28.95,32,14,33,0.01
2013-4-10,75.6,63.0,50.1,24.4,20.6,16.3,32,21,11,29.47,29.23,9,2,11,0.00
2013-4-11,81.2,67.9,52.3,27.4,23.5,19.5,32,19,12,29.25,29.00,7,0,11,0.00
2013-4-12,83.2,70.7,55.9,34.0,30.0,24.5,37,23,14,29.16,29.01,6,1,8,0.00
2013-4-13,88.2,75.7,56.5,32.9,28.5,22.0,35,19,9,29.05,28.78,19,4,22,0.00
2013-4-14,87.0,74.5,62.0,37.2,31.2,24.1,33,21,15,28.97,28.70,19,3,19,0.00
2013-4-15,79.2,69.5,61.6,33.5,29.5,23.0,34,23,13,28.90,28.71,24,8,32,0.00
2013-4-16,63.9,58.8,51.4,32.9,25.6,15.6,41,29,16,29.23,28.83,22,8,32,0.00
2013-4-17,66.0,56.5,50.2,26.0,18.9,8.9,38,24,11,29.52,29.23,24,7,27,0.00
2013-4-18,69.1,55.8,45.2,20.3,14.8,9.1,34,21,10,29.64,29.49,12,2,17,0.00
2013-4-19,77.4,63.3,46.2,19.9,14.8,10.4,27,16,9,29.58,29.21,8,1,13,0.00
2013-4-20,82.8,70.4,54.5,30.6,23.0,14.2,30,17,10,29.33,29.19,16,1,17,0.00
2013-4-21,91.2,74.1,55.3,28.1,23.3,20.1,27,16,8,29.33,29.10,27,1,27,0.00
2013-4-22,91.8,78.3,59.5,28.3,24.2,12.4,25,14,8,29.17,28.92,18,2,25,0.00
2013-4-23,78.8,66.9,58.9,24.7,16.0,8.9,20,14,8,29.41,29.03,26,6,33,0.00
2013-4-24,81.8,65.2,50.6,16.4,12.5,6.3,22,14,6,29.30,29.12,10,1,14,0.00
2013-4-25,84.7,72.2,56.0,29.3,18.0,10.0,24,14,8,29.21,29.09,13,2,18,0.00
2013-4-26,90.1,71.4,60.2,35.7,27.1,18.0,38,21,8,29.37,29.18,11,0,12,0.00
2013-4-27,91.8,77.6,59.3,24.9,20.2,15.5,20,12,7,29.42,29.17,7,0,12,0.00
2013-4-28,96.6,80.4,61.3,27.6,22.2,18.2,21,13,6,29.23,28.98,8,1,12,0.00
2013-4-29,99.4,85.5,67.1,33.2,24.9,20.0,19,12,7,29.09,28.83,11,2,20,0.00
2013-4-30,95.6,85.8,74.4,37.5,31.5,21.3,21,15,9,28.93,28.79,16,4,22,0.00